createdAt,value
2023-05-24T00:03:22.151Z,19.20
2023-05-24T00:07:49.721Z,15.70
2023-05-24T00:12:17.194Z,16.40
2023-05-24T00:16:45.069Z,14.90
2023-05-24T00:21:12.860Z,13.80
2023-05-24T00:25:40.901Z,13.80
2023-05-24T00:30:08.750Z,13.90
2023-05-24T00:34:36.488Z,14.80
2023-05-24T00:39:03.950Z,14.00
2023-05-24T00:43:32.085Z,14.00
2023-05-24T00:48:00.196Z,14.70
2023-05-24T00:52:27.697Z,14.00
2023-05-24T00:56:55.159Z,16.40
2023-05-24T01:01:23.153Z,14.90
2023-05-24T01:05:50.595Z,15.30
2023-05-24T01:10:21.100Z,16.60
2023-05-24T01:14:59.287Z,15.60
2023-05-24T01:19:27.372Z,16.90
2023-05-24T01:24:04.242Z,17.10
2023-05-24T01:28:31.780Z,16.30
2023-05-24T01:32:59.289Z,16.60
2023-05-24T01:37:27.615Z,14.70
2023-05-24T01:41:55.347Z,14.40
2023-05-24T01:46:37.816Z,13.80
2023-05-24T01:51:05.356Z,13.60
2023-05-24T01:55:33.017Z,13.60
2023-05-24T02:00:00.590Z,12.90
2023-05-24T02:04:28.195Z,11.30
2023-05-24T02:08:56.041Z,11.10
2023-05-24T02:13:23.992Z,10.20
2023-05-24T02:17:51.688Z,8.60
2023-05-24T02:29:39.433Z,7.60
2023-05-24T02:33:58.024Z,7.00
2023-05-24T02:38:26.757Z,6.60
2023-05-24T02:42:43.658Z,7.00
2023-05-24T02:46:53.262Z,7.20
2023-05-24T02:51:22.528Z,6.50
2023-05-24T02:55:51.545Z,6.90
2023-05-24T03:00:20.853Z,6.20
2023-05-24T03:04:38.076Z,6.80
2023-05-24T03:09:07.439Z,6.90
2023-05-24T03:13:29.391Z,7.60
2023-05-24T03:17:40.278Z,7.10
2023-05-24T03:22:09.689Z,6.60
2023-05-24T03:26:39.288Z,7.60
2023-05-24T03:31:04.639Z,6.40
2023-05-24T03:35:33.628Z,6.70
2023-05-24T03:40:03.016Z,7.10
2023-05-24T03:43:54.100Z,6.70
2023-05-24T03:47:43.898Z,6.80
2023-05-24T03:52:12.628Z,6.40
2023-05-24T03:56:41.928Z,6.10
2023-05-24T04:01:14.331Z,6.10
2023-05-24T04:05:40.303Z,5.40
2023-05-24T04:10:09.153Z,5.00
2023-05-24T04:14:18.432Z,4.50
2023-05-24T04:18:48.206Z,4.30
2023-05-24T04:23:17.314Z,4.60
2023-05-24T04:27:46.519Z,3.30
2023-05-24T04:31:59.725Z,3.00
2023-05-24T04:36:29.103Z,2.60
2023-05-24T04:40:58.482Z,2.40
2023-05-24T04:45:27.582Z,2.10
2023-05-24T04:49:56.591Z,1.70
2023-05-24T04:54:25.726Z,1.60
2023-05-24T04:58:39.403Z,1.40
2023-05-24T05:03:07.245Z,1.20
2023-05-24T05:07:36.484Z,1.30
2023-05-24T05:12:01.655Z,1.20
2023-05-24T05:16:31.077Z,1.10
2023-05-24T05:21:01.134Z,1.00
2023-05-24T05:25:30.731Z,0.80
2023-05-24T05:29:59.934Z,0.70
2023-05-24T05:34:29.193Z,0.70
2023-05-24T05:38:58.184Z,0.90
2023-05-24T05:43:27.121Z,0.70
2023-05-24T05:47:55.779Z,0.80
2023-05-24T05:52:28.350Z,0.80
2023-05-24T05:56:53.135Z,0.70
2023-05-24T06:01:22.514Z,0.80
2023-05-24T06:05:51.540Z,0.90
2023-05-24T06:10:01.760Z,1.00
2023-05-24T06:14:30.685Z,1.00
2023-05-24T06:18:40.578Z,1.10
2023-05-24T06:23:10.767Z,1.10
2023-05-24T06:27:40.002Z,1.00
2023-05-24T06:32:09.187Z,1.20
2023-05-24T06:36:44.369Z,1.50
2023-05-24T06:41:13.484Z,2.00
2023-05-24T06:45:44.708Z,1.80
2023-05-24T06:49:55.709Z,1.90
2023-05-24T06:54:24.852Z,2.10
2023-05-24T06:58:53.745Z,2.60
2023-05-24T07:03:22.938Z,3.50
2023-05-24T07:07:51.874Z,3.70
2023-05-24T07:12:16.428Z,3.50
2023-05-24T07:16:32.928Z,4.10
2023-05-24T07:21:02.176Z,4.80
2023-05-24T07:29:13.496Z,4.70
2023-05-24T07:33:42.510Z,5.10
2023-05-24T07:38:11.464Z,5.70
2023-05-24T07:42:36.288Z,4.40
2023-05-24T07:47:06.835Z,5.00
2023-05-24T07:51:35.500Z,5.40
2023-05-24T07:55:45.112Z,5.50
2023-05-24T07:59:34.688Z,5.30
2023-05-24T08:03:23.946Z,5.10
2023-05-24T08:07:13.323Z,5.50
2023-05-24T08:11:02.643Z,5.40
2023-05-24T08:14:51.156Z,6.30
2023-05-24T08:18:40.220Z,6.90
2023-05-24T08:22:29.195Z,5.50
2023-05-24T08:25:52.811Z,6.60
2023-05-24T08:29:25.143Z,6.60
2023-05-24T08:33:04.117Z,6.70
2023-05-24T08:36:52.222Z,6.80
2023-05-24T08:40:41.662Z,6.90
2023-05-24T08:44:20.205Z,6.60
2023-05-24T08:48:01.139Z,7.20
2023-05-24T08:51:50.883Z,7.80
2023-05-24T08:55:40.480Z,7.10
2023-05-24T08:59:29.995Z,6.70
2023-05-24T09:03:12.804Z,7.30
2023-05-24T09:07:02.009Z,6.60
2023-05-24T09:10:55.481Z,7.70
2023-05-24T09:14:48.230Z,6.50
2023-05-24T09:18:24.713Z,6.70
2023-05-24T09:22:07.067Z,7.20
2023-05-24T09:25:43.310Z,7.60
2023-05-24T09:29:32.302Z,7.60
2023-05-24T09:33:21.509Z,6.40
2023-05-24T09:37:04.775Z,7.10
2023-05-24T09:40:48.569Z,7.00
2023-05-24T09:44:27.400Z,7.30
2023-05-24T09:48:16.470Z,7.40
2023-05-24T09:51:54.731Z,6.70
2023-05-24T09:55:32.737Z,6.90
2023-05-24T09:59:22.018Z,7.00
2023-05-24T10:02:54.920Z,7.50
2023-05-24T10:06:36.745Z,7.90
2023-05-24T10:10:25.987Z,8.40
2023-05-24T10:14:14.951Z,7.70
2023-05-24T10:17:47.195Z,8.50
2023-05-24T10:21:36.286Z,8.50
2023-05-24T10:25:25.486Z,7.90
2023-05-24T10:29:16.997Z,7.60
2023-05-24T10:33:05.584Z,8.30
2023-05-24T10:36:43.399Z,9.10
2023-05-24T10:40:32.629Z,9.10
2023-05-24T10:44:14.363Z,8.10
2023-05-24T10:47:56.637Z,8.40
2023-05-24T10:51:44.339Z,8.80
2023-05-24T10:55:16.740Z,8.90
2023-05-24T10:59:08.876Z,8.90
2023-05-24T11:02:58.168Z,8.60
2023-05-24T11:06:47.309Z,8.40
2023-05-24T11:10:36.388Z,8.70
2023-05-24T11:14:26.154Z,9.10
2023-05-24T11:18:14.440Z,9.30
2023-05-24T11:21:12.859Z,9.70
2023-05-24T11:24:30.262Z,8.60
2023-05-24T11:28:24.957Z,10.10
2023-05-24T11:32:10.529Z,9.30
2023-05-24T11:35:52.487Z,9.80
2023-05-24T11:39:34.433Z,9.90
2023-05-24T11:43:23.909Z,9.40
2023-05-24T11:47:07.216Z,9.00
2023-05-24T11:50:56.213Z,8.80
2023-05-24T11:54:19.492Z,8.50
2023-05-24T11:58:00.584Z,8.50
2023-05-24T12:01:35.294Z,9.60
2023-05-24T12:05:17.512Z,8.20
2023-05-24T12:08:51.982Z,8.50
2023-05-24T12:12:45.806Z,8.30
2023-05-24T12:16:12.109Z,8.70
2023-05-24T12:19:44.578Z,9.30
2023-05-24T12:23:33.894Z,8.30
2023-05-24T12:27:02.802Z,8.60
2023-05-24T12:30:48.556Z,8.70
2023-05-24T12:34:18.025Z,9.00
2023-05-24T12:37:35.429Z,8.90
2023-05-24T12:41:21.054Z,9.00
2023-05-24T12:45:00.745Z,8.50
2023-05-24T12:48:47.298Z,8.70
2023-05-24T12:52:27.019Z,9.60
2023-05-24T12:56:16.232Z,9.70
2023-05-24T13:00:05.510Z,8.70
2023-05-24T13:03:30.189Z,9.70
2023-05-24T13:07:19.497Z,9.10
2023-05-24T13:10:51.997Z,8.70
2023-05-24T13:14:41.422Z,9.00
2023-05-24T13:18:22.754Z,8.10
2023-05-24T13:22:04.493Z,8.60
2023-05-24T13:25:47.980Z,8.10
2023-05-24T13:29:48.727Z,8.80
2023-05-24T13:33:21.776Z,8.70
2023-05-24T13:36:47.008Z,9.10
2023-05-24T13:40:36.278Z,8.50
2023-05-24T13:44:18.667Z,8.50
2023-05-24T13:48:08.062Z,8.30
2023-05-24T13:51:32.728Z,8.00
2023-05-24T13:54:38.068Z,7.80
2023-05-24T13:57:51.267Z,8.60
2023-05-24T14:01:28.518Z,8.80
2023-05-24T14:05:21.740Z,8.90
2023-05-24T14:09:11.598Z,9.50
2023-05-24T14:12:43.979Z,9.00
2023-05-24T14:16:08.968Z,9.40
2023-05-24T14:19:21.998Z,9.50
2023-05-24T14:22:26.544Z,9.70
2023-05-24T14:25:58.453Z,10.20
2023-05-24T14:28:56.094Z,9.20
2023-05-24T14:32:17.139Z,10.00
2023-05-24T14:35:39.504Z,10.60
2023-05-24T14:39:12.052Z,9.90
2023-05-24T14:42:11.625Z,10.20
2023-05-24T14:45:59.503Z,10.60
2023-05-24T14:49:40.646Z,10.00
2023-05-24T14:53:29.911Z,9.60
2023-05-24T14:57:01.283Z,9.40
2023-05-24T15:00:31.672Z,9.90
2023-05-24T15:04:10.467Z,10.40
2023-05-24T15:07:20.686Z,9.90
2023-05-24T15:10:33.894Z,11.00
2023-05-24T15:13:07.040Z,9.60
2023-05-24T15:16:27.568Z,9.80
2023-05-24T15:20:16.317Z,10.30
2023-05-24T15:23:26.012Z,10.00
2023-05-24T15:26:59.059Z,10.70
2023-05-24T15:34:16.020Z,10.00
2023-05-24T15:37:53.675Z,10.50
2023-05-24T15:41:00.810Z,10.30
2023-05-24T15:44:09.149Z,10.60
2023-05-24T15:47:58.798Z,11.10
2023-05-24T15:52:03.652Z,10.60
2023-05-24T15:55:38.808Z,11.10
2023-05-24T15:59:05.769Z,10.40
2023-05-24T16:02:34.071Z,10.70
2023-05-24T16:05:28.461Z,10.50
2023-05-24T16:08:45.474Z,11.00
2023-05-24T16:12:26.110Z,11.10
2023-05-24T16:16:02.870Z,10.70
2023-05-24T16:19:07.753Z,11.00
2023-05-24T16:22:46.837Z,11.00
2023-05-24T16:25:50.680Z,11.90
2023-05-24T16:28:39.415Z,11.90
2023-05-24T16:31:50.900Z,12.10
2023-05-24T16:35:16.039Z,12.50
2023-05-24T16:37:51.429Z,10.70
2023-05-24T16:41:13.672Z,10.80
2023-05-24T16:43:59.927Z,12.50
2023-05-24T16:47:10.703Z,11.20
2023-05-24T16:50:43.388Z,12.30
2023-05-24T16:53:55.614Z,11.90
2023-05-24T16:56:40.663Z,12.30
2023-05-24T16:59:47.761Z,12.10
2023-05-24T17:02:59.846Z,12.30
2023-05-24T17:05:58.017Z,12.30
2023-05-24T17:08:47.627Z,11.20
2023-05-24T17:11:38.379Z,12.60
2023-05-24T17:14:50.243Z,11.50
2023-05-24T17:18:39.970Z,11.00
2023-05-24T17:21:53.577Z,12.10
2023-05-24T17:25:36.990Z,12.30
2023-05-24T17:29:24.448Z,11.80
2023-05-24T17:32:51.686Z,11.60
2023-05-24T17:36:39.491Z,11.70
2023-05-24T17:39:58.517Z,11.20
2023-05-24T17:43:29.983Z,9.10
2023-05-24T17:47:17.375Z,8.70
2023-05-24T17:50:21.807Z,9.80
2023-05-24T17:54:11.047Z,9.80
2023-05-24T17:56:57.261Z,9.70
2023-05-24T18:00:29.363Z,10.10
2023-05-24T18:04:14.030Z,9.20
2023-05-24T18:07:50.324Z,8.40
2023-05-24T18:11:38.759Z,8.30
2023-05-24T18:15:19.433Z,8.60
2023-05-24T18:19:09.761Z,9.00
2023-05-24T18:22:48.294Z,8.90
2023-05-24T18:26:39.145Z,8.50
2023-05-24T18:30:09.034Z,9.00
2023-05-24T18:33:43.800Z,8.80
2023-05-24T18:37:25.549Z,9.00
2023-05-24T18:41:10.403Z,8.40
2023-05-24T18:44:43.580Z,8.70
2023-05-24T18:48:17.498Z,9.00
2023-05-24T18:51:58.027Z,8.80
2023-05-24T18:55:44.275Z,8.50
2023-05-24T18:59:20.631Z,8.40
2023-05-24T19:03:10.367Z,9.00
2023-05-24T19:06:45.488Z,9.10
2023-05-24T19:10:18.356Z,9.30
2023-05-24T19:14:12.202Z,7.70
2023-05-24T19:17:53.345Z,8.90
2023-05-24T19:21:31.789Z,8.40
2023-05-24T19:24:57.457Z,7.30
2023-05-24T19:28:47.491Z,7.90
2023-05-24T19:32:37.152Z,8.40
2023-05-24T19:35:52.986Z,6.90
2023-05-24T19:39:33.086Z,7.30
2023-05-24T19:43:11.801Z,7.20
2023-05-24T19:46:52.550Z,7.60
2023-05-24T19:50:26.726Z,6.90
2023-05-24T19:54:01.419Z,7.50
2023-05-24T19:57:35.755Z,8.30
2023-05-24T20:01:11.148Z,7.20
2023-05-24T20:05:03.619Z,7.50
2023-05-24T20:08:53.242Z,7.80
2023-05-24T20:12:41.343Z,8.00
2023-05-24T20:16:07.840Z,7.70
2023-05-24T20:19:49.541Z,7.80
2023-05-24T20:23:29.619Z,8.60
2023-05-24T20:27:03.596Z,7.90
2023-05-24T20:30:44.130Z,8.80
2023-05-24T20:34:10.711Z,8.60
2023-05-24T20:37:42.606Z,9.20
2023-05-24T20:41:32.854Z,9.30
2023-05-24T20:45:22.523Z,9.30
2023-05-24T20:49:01.853Z,10.20
2023-05-24T20:52:51.343Z,8.50
2023-05-24T20:56:28.463Z,8.90
2023-05-24T21:00:11.856Z,10.20
2023-05-24T21:03:52.258Z,9.10
2023-05-24T21:07:41.415Z,9.40
2023-05-24T21:11:33.221Z,9.40
2023-05-24T21:14:59.411Z,9.20
2023-05-24T21:18:48.641Z,8.50
2023-05-24T21:22:28.588Z,8.70
2023-05-24T21:26:00.524Z,8.90
2023-05-24T21:29:48.657Z,7.80
2023-05-24T21:33:38.005Z,8.30
2023-05-24T21:37:27.197Z,8.20
2023-05-24T21:41:06.780Z,7.20
2023-05-24T21:44:49.556Z,7.30
2023-05-24T21:48:38.701Z,7.80
2023-05-24T21:52:27.858Z,7.40
2023-05-24T21:56:00.005Z,7.50
2023-05-24T21:59:43.550Z,8.20
2023-05-24T22:03:18.648Z,6.50
2023-05-24T22:06:46.444Z,7.50
2023-05-24T22:10:35.428Z,8.10
2023-05-24T22:14:17.043Z,8.00
2023-05-24T22:18:06.354Z,8.10
2023-05-24T22:21:55.485Z,8.70
2023-05-24T22:25:40.464Z,9.80
2023-05-24T22:29:33.452Z,9.10
2023-05-24T22:33:12.357Z,9.50
2023-05-24T22:37:01.323Z,9.80
2023-05-24T22:40:28.215Z,8.60
2023-05-24T22:44:16.274Z,9.90
2023-05-24T22:47:59.294Z,9.80
2023-05-24T22:51:48.692Z,9.90
2023-05-24T22:55:13.802Z,10.30
2023-05-24T22:58:51.171Z,10.60
2023-05-24T23:02:33.588Z,9.30
2023-05-24T23:06:21.674Z,10.20
2023-05-24T23:10:03.110Z,10.20
2023-05-24T23:13:51.978Z,10.00
2023-05-24T23:17:41.220Z,10.20
2023-05-24T23:21:33.017Z,10.40
2023-05-24T23:25:22.368Z,9.80
2023-05-24T23:29:04.258Z,10.30
2023-05-24T23:32:53.355Z,10.60
2023-05-24T23:36:42.246Z,10.30
2023-05-24T23:40:31.754Z,10.40
2023-05-24T23:44:21.215Z,12.00
2023-05-24T23:48:09.252Z,10.40
2023-05-24T23:51:58.574Z,9.90
2023-05-24T23:55:46.471Z,11.00
2023-05-24T23:59:35.660Z,10.20
